sensor_id;sensor_type;location;lat;lon;timestamp;P1;durP1;ratioP1;P2;durP2;ratioP2
20277;SDS011;10298;49.716;17.806;2022-07-01T00:01:40;20.23;;;16.50;;
20277;SDS011;10298;49.716;17.806;2022-07-01T00:04:07;19.45;;;16.80;;
20277;SDS011;10298;49.716;17.806;2022-07-01T00:06:34;21.42;;;15.82;;
20277;SDS011;10298;49.716;17.806;2022-07-01T00:09:01;18.90;;;14.88;;
20277;SDS011;10298;49.716;17.806;2022-07-01T00:11:31;17.83;;;15.88;;
20277;SDS011;10298;49.716;17.806;2022-07-01T00:13:58;20.20;;;15.75;;
20277;SDS011;10298;49.716;17.806;2022-07-01T00:16:25;19.88;;;15.98;;
20277;SDS011;10298;49.716;17.806;2022-07-01T00:18:52;20.13;;;14.93;;
20277;SDS011;10298;49.716;17.806;2022-07-01T00:21:19;19.13;;;15.02;;
20277;SDS011;10298;49.716;17.806;2022-07-01T00:23:46;17.38;;;15.57;;
20277;SDS011;10298;49.716;17.806;2022-07-01T00:26:13;20.77;;;15.60;;
20277;SDS011;10298;49.716;17.806;2022-07-01T00:28:39;19.85;;;15.60;;
20277;SDS011;10298;49.716;17.806;2022-07-01T00:31:06;20.58;;;15.90;;
20277;SDS011;10298;49.716;17.806;2022-07-01T00:33:34;21.85;;;17.45;;
20277;SDS011;10298;49.716;17.806;2022-07-01T00:36:01;19.02;;;17.00;;
20277;SDS011;10298;49.716;17.806;2022-07-01T00:38:28;20.80;;;17.08;;
20277;SDS011;10298;49.716;17.806;2022-07-01T00:40:55;19.77;;;16.77;;
20277;SDS011;10298;49.716;17.806;2022-07-01T00:43:22;19.00;;;15.65;;
20277;SDS011;10298;49.716;17.806;2022-07-01T00:46:10;19.70;;;17.35;;
20277;SDS011;10298;49.716;17.806;2022-07-01T00:48:38;19.63;;;17.63;;
20277;SDS011;10298;49.716;17.806;2022-07-01T00:51:06;19.63;;;16.83;;
20277;SDS011;10298;49.716;17.806;2022-07-01T00:53:33;22.02;;;17.23;;
20277;SDS011;10298;49.716;17.806;2022-07-01T00:56:00;20.60;;;18.05;;
20277;SDS011;10298;49.716;17.806;2022-07-01T00:58:27;20.15;;;17.40;;
20277;SDS011;10298;49.716;17.806;2022-07-01T01:00:58;26.88;;;18.25;;
20277;SDS011;10298;49.716;17.806;2022-07-01T01:03:25;20.73;;;18.00;;
20277;SDS011;10298;49.716;17.806;2022-07-01T01:05:53;21.05;;;18.38;;
20277;SDS011;10298;49.716;17.806;2022-07-01T01:08:23;21.23;;;17.38;;
20277;SDS011;10298;49.716;17.806;2022-07-01T01:10:53;21.33;;;17.77;;
20277;SDS011;10298;49.716;17.806;2022-07-01T01:13:20;21.15;;;17.50;;
20277;SDS011;10298;49.716;17.806;2022-07-01T01:15:47;24.23;;;17.60;;
20277;SDS011;10298;49.716;17.806;2022-07-01T01:18:15;22.85;;;18.50;;
20277;SDS011;10298;49.716;17.806;2022-07-01T01:20:42;21.60;;;18.85;;
20277;SDS011;10298;49.716;17.806;2022-07-01T01:23:09;21.42;;;18.35;;
20277;SDS011;10298;49.716;17.806;2022-07-01T01:25:36;21.60;;;18.05;;
20277;SDS011;10298;49.716;17.806;2022-07-01T01:28:03;22.92;;;18.58;;
20277;SDS011;10298;49.716;17.806;2022-07-01T01:30:30;20.98;;;18.60;;
20277;SDS011;10298;49.716;17.806;2022-07-01T01:32:57;23.05;;;19.45;;
20277;SDS011;10298;49.716;17.806;2022-07-01T01:35:24;21.83;;;19.45;;
20277;SDS011;10298;49.716;17.806;2022-07-01T01:37:51;24.85;;;19.35;;
20277;SDS011;10298;49.716;17.806;2022-07-01T01:40:18;21.08;;;17.58;;
20277;SDS011;10298;49.716;17.806;2022-07-01T01:42:45;24.70;;;18.63;;
20277;SDS011;10298;49.716;17.806;2022-07-01T01:45:12;21.98;;;18.50;;
20277;SDS011;10298;49.716;17.806;2022-07-01T01:47:40;20.95;;;18.10;;
20277;SDS011;10298;49.716;17.806;2022-07-01T01:50:08;24.63;;;20.08;;
20277;SDS011;10298;49.716;17.806;2022-07-01T01:52:37;22.88;;;19.50;;
20277;SDS011;10298;49.716;17.806;2022-07-01T01:55:05;21.13;;;17.98;;
20277;SDS011;10298;49.716;17.806;2022-07-01T01:57:32;22.90;;;17.63;;
20277;SDS011;10298;49.716;17.806;2022-07-01T01:59:59;21.30;;;18.05;;
20277;SDS011;10298;49.716;17.806;2022-07-01T02:02:26;20.92;;;18.13;;
20277;SDS011;10298;49.716;17.806;2022-07-01T02:04:53;21.88;;;17.25;;
20277;SDS011;10298;49.716;17.806;2022-07-01T02:07:20;18.67;;;16.50;;
20277;SDS011;10298;49.716;17.806;2022-07-01T02:09:47;20.83;;;17.02;;
20277;SDS011;10298;49.716;17.806;2022-07-01T02:12:14;19.67;;;16.75;;
20277;SDS011;10298;49.716;17.806;2022-07-01T02:14:41;21.33;;;17.83;;
20277;SDS011;10298;49.716;17.806;2022-07-01T02:17:08;22.73;;;17.80;;
20277;SDS011;10298;49.716;17.806;2022-07-01T02:19:35;22.27;;;19.10;;
20277;SDS011;10298;49.716;17.806;2022-07-01T02:22:02;21.48;;;18.50;;
20277;SDS011;10298;49.716;17.806;2022-07-01T02:24:29;22.75;;;19.67;;
20277;SDS011;10298;49.716;17.806;2022-07-01T02:26:56;22.27;;;19.73;;
20277;SDS011;10298;49.716;17.806;2022-07-01T02:29:23;24.40;;;21.27;;
20277;SDS011;10298;49.716;17.806;2022-07-01T02:31:49;25.65;;;18.73;;
20277;SDS011;10298;49.716;17.806;2022-07-01T02:34:16;22.95;;;18.73;;
20277;SDS011;10298;49.716;17.806;2022-07-01T02:36:43;22.92;;;18.48;;
20277;SDS011;10298;49.716;17.806;2022-07-01T02:39:10;23.95;;;20.05;;
20277;SDS011;10298;49.716;17.806;2022-07-01T02:41:37;25.27;;;22.08;;
20277;SDS011;10298;49.716;17.806;2022-07-01T02:44:24;26.25;;;21.58;;
20277;SDS011;10298;49.716;17.806;2022-07-01T02:46:50;24.40;;;19.98;;
20277;SDS011;10298;49.716;17.806;2022-07-01T02:49:17;25.48;;;20.05;;
20277;SDS011;10298;49.716;17.806;2022-07-01T02:51:44;24.15;;;19.55;;
20277;SDS011;10298;49.716;17.806;2022-07-01T02:54:11;23.77;;;20.27;;
20277;SDS011;10298;49.716;17.806;2022-07-01T02:56:38;24.92;;;20.63;;
20277;SDS011;10298;49.716;17.806;2022-07-01T02:59:05;21.27;;;19.00;;
20277;SDS011;10298;49.716;17.806;2022-07-01T03:01:31;23.85;;;19.15;;
20277;SDS011;10298;49.716;17.806;2022-07-01T03:03:58;20.98;;;17.05;;
20277;SDS011;10298;49.716;17.806;2022-07-01T03:06:26;22.33;;;18.77;;
20277;SDS011;10298;49.716;17.806;2022-07-01T03:08:53;19.85;;;17.20;;
20277;SDS011;10298;49.716;17.806;2022-07-01T03:11:20;18.27;;;15.93;;
20277;SDS011;10298;49.716;17.806;2022-07-01T03:13:47;24.88;;;19.17;;
20277;SDS011;10298;49.716;17.806;2022-07-01T03:16:14;25.83;;;18.50;;
20277;SDS011;10298;49.716;17.806;2022-07-01T03:18:41;22.15;;;17.27;;
20277;SDS011;10298;49.716;17.806;2022-07-01T03:21:08;18.73;;;16.30;;
20277;SDS011;10298;49.716;17.806;2022-07-01T03:23:35;17.20;;;13.57;;
20277;SDS011;10298;49.716;17.806;2022-07-01T03:26:01;21.35;;;14.90;;
20277;SDS011;10298;49.716;17.806;2022-07-01T03:28:28;17.33;;;14.23;;
20277;SDS011;10298;49.716;17.806;2022-07-01T03:30:57;16.77;;;13.63;;
20277;SDS011;10298;49.716;17.806;2022-07-01T03:33:24;19.17;;;13.85;;
20277;SDS011;10298;49.716;17.806;2022-07-01T03:35:57;18.27;;;13.15;;
20277;SDS011;10298;49.716;17.806;2022-07-01T03:38:24;16.30;;;12.35;;
20277;SDS011;10298;49.716;17.806;2022-07-01T03:40:51;16.20;;;11.30;;
20277;SDS011;10298;49.716;17.806;2022-07-01T03:43:18;13.68;;;11.55;;
20277;SDS011;10298;49.716;17.806;2022-07-01T03:45:47;14.68;;;10.77;;
20277;SDS011;10298;49.716;17.806;2022-07-01T03:48:14;15.40;;;10.82;;
20277;SDS011;10298;49.716;17.806;2022-07-01T03:50:42;16.60;;;9.77;;
20277;SDS011;10298;49.716;17.806;2022-07-01T03:53:09;15.00;;;9.95;;
20277;SDS011;10298;49.716;17.806;2022-07-01T03:55:54;14.65;;;8.98;;
20277;SDS011;10298;49.716;17.806;2022-07-01T03:58:21;13.18;;;9.23;;
20277;SDS011;10298;49.716;17.806;2022-07-01T04:00:48;12.02;;;9.07;;
20277;SDS011;10298;49.716;17.806;2022-07-01T04:03:15;11.10;;;8.43;;
20277;SDS011;10298;49.716;17.806;2022-07-01T04:05:42;13.02;;;8.43;;
20277;SDS011;10298;49.716;17.806;2022-07-01T04:08:09;11.95;;;8.55;;
20277;SDS011;10298;49.716;17.806;2022-07-01T04:10:38;14.57;;;8.85;;
20277;SDS011;10298;49.716;17.806;2022-07-01T04:13:06;12.70;;;9.73;;
20277;SDS011;10298;49.716;17.806;2022-07-01T04:15:52;13.02;;;9.45;;
20277;SDS011;10298;49.716;17.806;2022-07-01T04:18:20;17.20;;;9.50;;
20277;SDS011;10298;49.716;17.806;2022-07-01T04:20:47;17.70;;;9.20;;
20277;SDS011;10298;49.716;17.806;2022-07-01T04:23:33;14.90;;;8.75;;
20277;SDS011;10298;49.716;17.806;2022-07-01T04:26:01;11.57;;;8.88;;
20277;SDS011;10298;49.716;17.806;2022-07-01T04:28:51;12.05;;;8.70;;
20277;SDS011;10298;49.716;17.806;2022-07-01T04:31:19;14.77;;;8.20;;
20277;SDS011;10298;49.716;17.806;2022-07-01T04:33:47;11.65;;;8.60;;
20277;SDS011;10298;49.716;17.806;2022-07-01T04:36:15;11.40;;;8.93;;
20277;SDS011;10298;49.716;17.806;2022-07-01T04:38:42;11.85;;;8.43;;
20277;SDS011;10298;49.716;17.806;2022-07-01T04:41:09;16.25;;;8.48;;
20277;SDS011;10298;49.716;17.806;2022-07-01T04:43:55;13.68;;;8.75;;
20277;SDS011;10298;49.716;17.806;2022-07-01T04:46:21;12.77;;;9.20;;
20277;SDS011;10298;49.716;17.806;2022-07-01T04:48:48;10.93;;;8.70;;
20277;SDS011;10298;49.716;17.806;2022-07-01T04:51:15;11.93;;;9.15;;
20277;SDS011;10298;49.716;17.806;2022-07-01T04:53:42;11.90;;;9.10;;
20277;SDS011;10298;49.716;17.806;2022-07-01T04:56:09;13.30;;;8.10;;
20277;SDS011;10298;49.716;17.806;2022-07-01T04:58:36;11.82;;;8.18;;
20277;SDS011;10298;49.716;17.806;2022-07-01T05:01:02;11.52;;;8.20;;
20277;SDS011;10298;49.716;17.806;2022-07-01T05:03:29;12.35;;;8.27;;
20277;SDS011;10298;49.716;17.806;2022-07-01T05:05:56;18.05;;;8.70;;
20277;SDS011;10298;49.716;17.806;2022-07-01T05:08:23;18.35;;;8.88;;
20277;SDS011;10298;49.716;17.806;2022-07-01T05:10:50;12.00;;;8.82;;
20277;SDS011;10298;49.716;17.806;2022-07-01T05:13:17;14.57;;;8.88;;
20277;SDS011;10298;49.716;17.806;2022-07-01T05:15:44;11.20;;;8.95;;
20277;SDS011;10298;49.716;17.806;2022-07-01T05:18:10;14.40;;;8.70;;
20277;SDS011;10298;49.716;17.806;2022-07-01T05:20:56;11.98;;;8.82;;
20277;SDS011;10298;49.716;17.806;2022-07-01T05:23:41;13.65;;;9.23;;
20277;SDS011;10298;49.716;17.806;2022-07-01T05:26:08;13.38;;;9.43;;
20277;SDS011;10298;49.716;17.806;2022-07-01T05:28:35;12.57;;;9.65;;
20277;SDS011;10298;49.716;17.806;2022-07-01T05:31:02;13.63;;;9.57;;
20277;SDS011;10298;49.716;17.806;2022-07-01T05:33:28;15.77;;;9.07;;
20277;SDS011;10298;49.716;17.806;2022-07-01T05:35:55;17.60;;;9.77;;
20277;SDS011;10298;49.716;17.806;2022-07-01T05:38:22;15.27;;;9.40;;
20277;SDS011;10298;49.716;17.806;2022-07-01T05:40:49;12.68;;;9.38;;
20277;SDS011;10298;49.716;17.806;2022-07-01T05:43:18;12.10;;;9.43;;
20277;SDS011;10298;49.716;17.806;2022-07-01T05:45:46;12.85;;;9.35;;
20277;SDS011;10298;49.716;17.806;2022-07-01T05:48:13;15.30;;;10.15;;
20277;SDS011;10298;49.716;17.806;2022-07-01T05:50:40;15.25;;;9.70;;
20277;SDS011;10298;49.716;17.806;2022-07-01T05:53:06;13.10;;;9.70;;
20277;SDS011;10298;49.716;17.806;2022-07-01T05:55:33;12.40;;;10.05;;
20277;SDS011;10298;49.716;17.806;2022-07-01T05:58:00;11.15;;;9.30;;
20277;SDS011;10298;49.716;17.806;2022-07-01T06:00:27;11.50;;;9.45;;
20277;SDS011;10298;49.716;17.806;2022-07-01T06:02:54;13.52;;;10.25;;
20277;SDS011;10298;49.716;17.806;2022-07-01T06:05:27;14.40;;;9.73;;
20277;SDS011;10298;49.716;17.806;2022-07-01T06:07:54;15.38;;;9.85;;
20277;SDS011;10298;49.716;17.806;2022-07-01T06:10:20;13.75;;;10.20;;
20277;SDS011;10298;49.716;17.806;2022-07-01T06:12:47;20.67;;;10.63;;
20277;SDS011;10298;49.716;17.806;2022-07-01T06:15:14;17.20;;;10.40;;
20277;SDS011;10298;49.716;17.806;2022-07-01T06:17:41;17.00;;;10.52;;
20277;SDS011;10298;49.716;17.806;2022-07-01T06:20:08;12.15;;;9.80;;
20277;SDS011;10298;49.716;17.806;2022-07-01T06:22:35;14.57;;;10.32;;
20277;SDS011;10298;49.716;17.806;2022-07-01T06:25:02;13.43;;;9.77;;
20277;SDS011;10298;49.716;17.806;2022-07-01T06:27:29;14.45;;;10.32;;
20277;SDS011;10298;49.716;17.806;2022-07-01T06:29:56;16.65;;;9.82;;
20277;SDS011;10298;49.716;17.806;2022-07-01T06:32:23;19.02;;;10.50;;
20277;SDS011;10298;49.716;17.806;2022-07-01T06:34:50;14.52;;;9.95;;
20277;SDS011;10298;49.716;17.806;2022-07-01T06:37:18;18.40;;;11.63;;
20277;SDS011;10298;49.716;17.806;2022-07-01T06:39:47;12.77;;;10.48;;
20277;SDS011;10298;49.716;17.806;2022-07-01T06:42:14;13.18;;;10.40;;
20277;SDS011;10298;49.716;17.806;2022-07-01T06:44:41;11.00;;;9.73;;
20277;SDS011;10298;49.716;17.806;2022-07-01T06:47:08;13.13;;;10.55;;
20277;SDS011;10298;49.716;17.806;2022-07-01T06:49:36;11.80;;;10.15;;
20277;SDS011;10298;49.716;17.806;2022-07-01T06:52:04;20.63;;;11.35;;
20277;SDS011;10298;49.716;17.806;2022-07-01T06:54:31;14.73;;;10.40;;
20277;SDS011;10298;49.716;17.806;2022-07-01T06:56:58;17.55;;;10.85;;
20277;SDS011;10298;49.716;17.806;2022-07-01T06:59:25;16.05;;;10.18;;
20277;SDS011;10298;49.716;17.806;2022-07-01T07:01:52;13.43;;;11.60;;
20277;SDS011;10298;49.716;17.806;2022-07-01T07:04:19;12.82;;;10.45;;
20277;SDS011;10298;49.716;17.806;2022-07-01T07:07:06;17.40;;;10.45;;
20277;SDS011;10298;49.716;17.806;2022-07-01T07:09:33;13.32;;;10.85;;
20277;SDS011;10298;49.716;17.806;2022-07-01T07:12:00;12.18;;;10.18;;
20277;SDS011;10298;49.716;17.806;2022-07-01T07:14:27;13.73;;;10.45;;
20277;SDS011;10298;49.716;17.806;2022-07-01T07:16:54;14.70;;;10.65;;
20277;SDS011;10298;49.716;17.806;2022-07-01T07:19:21;14.27;;;11.15;;
20277;SDS011;10298;49.716;17.806;2022-07-01T07:21:48;13.57;;;10.32;;
20277;SDS011;10298;49.716;17.806;2022-07-01T07:24:15;12.70;;;11.43;;
20277;SDS011;10298;49.716;17.806;2022-07-01T07:26:42;15.27;;;11.57;;
20277;SDS011;10298;49.716;17.806;2022-07-01T07:29:08;15.73;;;11.10;;
20277;SDS011;10298;49.716;17.806;2022-07-01T07:31:35;11.95;;;10.23;;
20277;SDS011;10298;49.716;17.806;2022-07-01T07:34:02;13.50;;;10.63;;
20277;SDS011;10298;49.716;17.806;2022-07-01T07:36:29;14.73;;;11.82;;
20277;SDS011;10298;49.716;17.806;2022-07-01T07:38:56;14.45;;;11.27;;
20277;SDS011;10298;49.716;17.806;2022-07-01T07:41:23;21.02;;;12.43;;
20277;SDS011;10298;49.716;17.806;2022-07-01T07:43:50;16.02;;;11.40;;
20277;SDS011;10298;49.716;17.806;2022-07-01T07:46:17;17.52;;;10.88;;
20277;SDS011;10298;49.716;17.806;2022-07-01T07:48:44;15.52;;;10.80;;
20277;SDS011;10298;49.716;17.806;2022-07-01T07:51:10;15.77;;;10.80;;
20277;SDS011;10298;49.716;17.806;2022-07-01T07:53:42;12.75;;;11.15;;
20277;SDS011;10298;49.716;17.806;2022-07-01T07:56:09;14.15;;;10.55;;
20277;SDS011;10298;49.716;17.806;2022-07-01T07:58:35;18.65;;;11.50;;
20277;SDS011;10298;49.716;17.806;2022-07-01T08:01:02;15.55;;;10.85;;
20277;SDS011;10298;49.716;17.806;2022-07-01T08:03:30;14.80;;;10.35;;
20277;SDS011;10298;49.716;17.806;2022-07-01T08:05:58;17.10;;;10.52;;
20277;SDS011;10298;49.716;17.806;2022-07-01T08:08:25;16.05;;;10.70;;
20277;SDS011;10298;49.716;17.806;2022-07-01T08:10:53;14.27;;;10.25;;
20277;SDS011;10298;49.716;17.806;2022-07-01T08:13:20;12.23;;;10.35;;
20277;SDS011;10298;49.716;17.806;2022-07-01T08:15:47;13.80;;;11.15;;
20277;SDS011;10298;49.716;17.806;2022-07-01T08:18:14;14.57;;;10.55;;
20277;SDS011;10298;49.716;17.806;2022-07-01T08:20:41;16.73;;;10.48;;
20277;SDS011;10298;49.716;17.806;2022-07-01T08:23:08;15.32;;;10.93;;
20277;SDS011;10298;49.716;17.806;2022-07-01T08:25:34;14.00;;;10.50;;
20277;SDS011;10298;49.716;17.806;2022-07-01T08:28:02;14.45;;;10.27;;
20277;SDS011;10298;49.716;17.806;2022-07-01T08:30:29;16.80;;;10.82;;
20277;SDS011;10298;49.716;17.806;2022-07-01T08:32:57;15.00;;;10.38;;
20277;SDS011;10298;49.716;17.806;2022-07-01T08:35:24;17.40;;;10.38;;
20277;SDS011;10298;49.716;17.806;2022-07-01T08:37:50;16.25;;;10.32;;
20277;SDS011;10298;49.716;17.806;2022-07-01T08:40:18;14.85;;;10.73;;
20277;SDS011;10298;49.716;17.806;2022-07-01T08:42:45;12.70;;;9.50;;
20277;SDS011;10298;49.716;17.806;2022-07-01T08:45:12;13.90;;;9.90;;
20277;SDS011;10298;49.716;17.806;2022-07-01T08:47:48;13.73;;;10.55;;
20277;SDS011;10298;49.716;17.806;2022-07-01T08:50:17;14.65;;;10.60;;
20277;SDS011;10298;49.716;17.806;2022-07-01T08:52:49;13.57;;;9.98;;
20277;SDS011;10298;49.716;17.806;2022-07-01T08:55:16;13.95;;;10.10;;
20277;SDS011;10298;49.716;17.806;2022-07-01T08:57:43;16.73;;;9.90;;
20277;SDS011;10298;49.716;17.806;2022-07-01T09:00:10;13.07;;;9.57;;
20277;SDS011;10298;49.716;17.806;2022-07-01T09:02:50;20.10;;;10.43;;
20277;SDS011;10298;49.716;17.806;2022-07-01T09:05:18;15.90;;;9.95;;
20277;SDS011;10298;49.716;17.806;2022-07-01T09:07:46;13.27;;;9.80;;
20277;SDS011;10298;49.716;17.806;2022-07-01T09:10:17;14.25;;;8.77;;
20277;SDS011;10298;49.716;17.806;2022-07-01T09:12:45;18.77;;;8.85;;
20277;SDS011;10298;49.716;17.806;2022-07-01T09:15:26;10.60;;;9.02;;
20277;SDS011;10298;49.716;17.806;2022-07-01T09:17:53;14.88;;;9.95;;
20277;SDS011;10298;49.716;17.806;2022-07-01T09:20:37;13.20;;;9.00;;
20277;SDS011;10298;49.716;17.806;2022-07-01T09:23:14;15.93;;;9.90;;
20277;SDS011;10298;49.716;17.806;2022-07-01T09:25:43;14.73;;;9.80;;
20277;SDS011;10298;49.716;17.806;2022-07-01T09:28:21;11.80;;;9.73;;
20277;SDS011;10298;49.716;17.806;2022-07-01T09:30:50;12.70;;;10.00;;
20277;SDS011;10298;49.716;17.806;2022-07-01T09:33:20;16.13;;;10.73;;
20277;SDS011;10298;49.716;17.806;2022-07-01T09:35:50;13.15;;;9.73;;
20277;SDS011;10298;49.716;17.806;2022-07-01T09:38:20;13.68;;;9.82;;
20277;SDS011;10298;49.716;17.806;2022-07-01T09:43:27;17.52;;;10.52;;
20277;SDS011;10298;49.716;17.806;2022-07-01T09:46:10;18.48;;;10.65;;
20277;SDS011;10298;49.716;17.806;2022-07-01T09:48:42;15.57;;;9.88;;
20277;SDS011;10298;49.716;17.806;2022-07-01T09:51:11;15.88;;;9.70;;
20277;SDS011;10298;49.716;17.806;2022-07-01T09:53:41;17.60;;;10.93;;
20277;SDS011;10298;49.716;17.806;2022-07-01T09:56:09;17.10;;;11.65;;
20277;SDS011;10298;49.716;17.806;2022-07-01T09:58:36;17.30;;;10.52;;
20277;SDS011;10298;49.716;17.806;2022-07-01T10:01:05;14.68;;;10.88;;
20277;SDS011;10298;49.716;17.806;2022-07-01T10:03:36;16.00;;;11.70;;
20277;SDS011;10298;49.716;17.806;2022-07-01T10:14:12;12.93;;;10.45;;
20277;SDS011;10298;49.716;17.806;2022-07-01T10:16:40;17.38;;;11.00;;
20277;SDS011;10298;49.716;17.806;2022-07-01T10:21:54;14.50;;;10.50;;
20277;SDS011;10298;49.716;17.806;2022-07-01T10:24:24;15.88;;;9.48;;
20277;SDS011;10298;49.716;17.806;2022-07-01T10:26:52;15.10;;;10.07;;
20277;SDS011;10298;49.716;17.806;2022-07-01T10:32:12;16.02;;;9.55;;
20277;SDS011;10298;49.716;17.806;2022-07-01T10:35:16;12.43;;;10.00;;
20277;SDS011;10298;49.716;17.806;2022-07-01T10:37:59;13.27;;;9.50;;
20277;SDS011;10298;49.716;17.806;2022-07-01T10:40:40;16.98;;;10.45;;
20277;SDS011;10298;49.716;17.806;2022-07-01T10:43:11;10.88;;;9.77;;
20277;SDS011;10298;49.716;17.806;2022-07-01T10:45:49;16.63;;;10.80;;
20277;SDS011;10298;49.716;17.806;2022-07-01T10:48:22;13.38;;;9.98;;
20277;SDS011;10298;49.716;17.806;2022-07-01T10:50:51;12.90;;;10.13;;
20277;SDS011;10298;49.716;17.806;2022-07-01T10:53:20;14.63;;;9.82;;
20277;SDS011;10298;49.716;17.806;2022-07-01T10:55:50;15.45;;;10.40;;
20277;SDS011;10298;49.716;17.806;2022-07-01T10:58:38;14.45;;;10.20;;
20277;SDS011;10298;49.716;17.806;2022-07-01T11:01:06;14.27;;;9.93;;
20277;SDS011;10298;49.716;17.806;2022-07-01T11:03:36;12.07;;;10.13;;
20277;SDS011;10298;49.716;17.806;2022-07-01T11:06:06;15.57;;;10.50;;
20277;SDS011;10298;49.716;17.806;2022-07-01T11:08:34;15.27;;;10.90;;
20277;SDS011;10298;49.716;17.806;2022-07-01T11:11:01;14.02;;;9.82;;
20277;SDS011;10298;49.716;17.806;2022-07-01T11:13:31;11.57;;;10.15;;
20277;SDS011;10298;49.716;17.806;2022-07-01T11:16:00;14.95;;;9.93;;
20277;SDS011;10298;49.716;17.806;2022-07-01T11:18:27;13.68;;;9.85;;
20277;SDS011;10298;49.716;17.806;2022-07-01T11:21:07;16.67;;;10.75;;
20277;SDS011;10298;49.716;17.806;2022-07-01T11:23:35;17.63;;;10.55;;
20277;SDS011;10298;49.716;17.806;2022-07-01T11:26:06;11.98;;;10.50;;
20277;SDS011;10298;49.716;17.806;2022-07-01T11:28:39;15.25;;;11.32;;
20277;SDS011;10298;49.716;17.806;2022-07-01T11:31:06;12.80;;;10.57;;
20277;SDS011;10298;49.716;17.806;2022-07-01T11:33:33;13.85;;;10.23;;
20277;SDS011;10298;49.716;17.806;2022-07-01T11:36:01;11.95;;;10.05;;
20277;SDS011;10298;49.716;17.806;2022-07-01T11:38:47;16.45;;;10.70;;
20277;SDS011;10298;49.716;17.806;2022-07-01T11:41:33;11.60;;;10.40;;
20277;SDS011;10298;49.716;17.806;2022-07-01T11:44:00;13.57;;;10.68;;
20277;SDS011;10298;49.716;17.806;2022-07-01T11:46:31;13.35;;;10.05;;
20277;SDS011;10298;49.716;17.806;2022-07-01T11:48:58;12.07;;;10.88;;
20277;SDS011;10298;49.716;17.806;2022-07-01T11:51:25;16.30;;;11.18;;
20277;SDS011;10298;49.716;17.806;2022-07-01T11:53:53;16.92;;;10.80;;
20277;SDS011;10298;49.716;17.806;2022-07-01T11:56:28;12.10;;;10.90;;
20277;SDS011;10298;49.716;17.806;2022-07-01T11:58:56;14.00;;;10.25;;
20277;SDS011;10298;49.716;17.806;2022-07-01T12:01:30;14.27;;;11.27;;
20277;SDS011;10298;49.716;17.806;2022-07-01T12:04:04;12.43;;;10.50;;
20277;SDS011;10298;49.716;17.806;2022-07-01T12:06:33;12.95;;;10.77;;
20277;SDS011;10298;49.716;17.806;2022-07-01T12:09:02;16.95;;;10.45;;
20277;SDS011;10298;49.716;17.806;2022-07-01T12:11:29;16.70;;;10.65;;
20277;SDS011;10298;49.716;17.806;2022-07-01T12:14:04;17.17;;;11.05;;
20277;SDS011;10298;49.716;17.806;2022-07-01T12:16:40;14.57;;;10.80;;
20277;SDS011;10298;49.716;17.806;2022-07-01T12:19:08;18.55;;;11.18;;
20277;SDS011;10298;49.716;17.806;2022-07-01T12:21:55;14.95;;;11.43;;
20277;SDS011;10298;49.716;17.806;2022-07-01T12:24:26;15.63;;;11.20;;
20277;SDS011;10298;49.716;17.806;2022-07-01T12:29:47;17.40;;;11.20;;
20277;SDS011;10298;49.716;17.806;2022-07-01T12:32:18;14.55;;;10.65;;
20277;SDS011;10298;49.716;17.806;2022-07-01T12:35:07;15.02;;;11.20;;
20277;SDS011;10298;49.716;17.806;2022-07-01T12:37:53;14.02;;;11.82;;
20277;SDS011;10298;49.716;17.806;2022-07-01T12:40:21;14.75;;;10.55;;
20277;SDS011;10298;49.716;17.806;2022-07-01T12:42:49;16.20;;;11.52;;
20277;SDS011;10298;49.716;17.806;2022-07-01T12:45:17;17.02;;;11.02;;
20277;SDS011;10298;49.716;17.806;2022-07-01T12:47:50;17.98;;;10.90;;
20277;SDS011;10298;49.716;17.806;2022-07-01T12:52:59;14.65;;;10.88;;
20277;SDS011;10298;49.716;17.806;2022-07-01T12:55:38;17.70;;;11.02;;
20277;SDS011;10298;49.716;17.806;2022-07-01T12:58:07;18.05;;;11.10;;
20277;SDS011;10298;49.716;17.806;2022-07-01T13:00:37;15.63;;;10.23;;
20277;SDS011;10298;49.716;17.806;2022-07-01T13:03:05;13.68;;;10.30;;
20277;SDS011;10298;49.716;17.806;2022-07-01T13:05:33;13.52;;;10.60;;
20277;SDS011;10298;49.716;17.806;2022-07-01T13:08:02;17.33;;;10.25;;
20277;SDS011;10298;49.716;17.806;2022-07-01T13:10:29;12.55;;;9.20;;
20277;SDS011;10298;49.716;17.806;2022-07-01T13:12:56;16.73;;;9.68;;
20277;SDS011;10298;49.716;17.806;2022-07-01T13:15:23;18.77;;;9.65;;
20277;SDS011;10298;49.716;17.806;2022-07-01T13:17:51;30.75;;;9.48;;
20277;SDS011;10298;49.716;17.806;2022-07-01T13:20:18;14.70;;;9.38;;
20277;SDS011;10298;49.716;17.806;2022-07-01T13:22:46;15.77;;;9.02;;
20277;SDS011;10298;49.716;17.806;2022-07-01T13:25:13;16.27;;;9.40;;
20277;SDS011;10298;49.716;17.806;2022-07-01T13:27:41;13.15;;;9.25;;
20277;SDS011;10298;49.716;17.806;2022-07-01T13:30:10;15.05;;;8.70;;
20277;SDS011;10298;49.716;17.806;2022-07-01T13:32:38;17.67;;;9.23;;
20277;SDS011;10298;49.716;17.806;2022-07-01T13:35:08;13.55;;;9.32;;
20277;SDS011;10298;49.716;17.806;2022-07-01T13:37:35;11.25;;;8.35;;
20277;SDS011;10298;49.716;17.806;2022-07-01T13:40:03;16.00;;;9.35;;
20277;SDS011;10298;49.716;17.806;2022-07-01T13:42:32;16.40;;;8.38;;
20277;SDS011;10298;49.716;17.806;2022-07-01T13:44:59;13.15;;;8.55;;
20277;SDS011;10298;49.716;17.806;2022-07-01T13:47:25;11.70;;;8.13;;
20277;SDS011;10298;49.716;17.806;2022-07-01T13:49:52;12.90;;;8.70;;
20277;SDS011;10298;49.716;17.806;2022-07-01T13:52:19;18.40;;;8.98;;
20277;SDS011;10298;49.716;17.806;2022-07-01T13:54:46;15.65;;;8.38;;
20277;SDS011;10298;49.716;17.806;2022-07-01T13:57:13;15.95;;;8.50;;
20277;SDS011;10298;49.716;17.806;2022-07-01T13:59:40;14.05;;;8.82;;
20277;SDS011;10298;49.716;17.806;2022-07-01T14:02:10;14.02;;;8.73;;
20277;SDS011;10298;49.716;17.806;2022-07-01T14:04:37;14.93;;;8.43;;
20277;SDS011;10298;49.716;17.806;2022-07-01T14:07:05;16.17;;;8.35;;
20277;SDS011;10298;49.716;17.806;2022-07-01T14:09:32;12.85;;;8.55;;
20277;SDS011;10298;49.716;17.806;2022-07-01T14:12:00;13.80;;;9.02;;
20277;SDS011;10298;49.716;17.806;2022-07-01T14:14:29;13.50;;;8.60;;
20277;SDS011;10298;49.716;17.806;2022-07-01T14:16:56;13.05;;;8.38;;
20277;SDS011;10298;49.716;17.806;2022-07-01T14:19:23;15.38;;;7.45;;
20277;SDS011;10298;49.716;17.806;2022-07-01T14:21:50;16.65;;;8.40;;
20277;SDS011;10298;49.716;17.806;2022-07-01T14:24:17;16.75;;;7.90;;
20277;SDS011;10298;49.716;17.806;2022-07-01T14:26:44;10.60;;;7.40;;
20277;SDS011;10298;49.716;17.806;2022-07-01T14:29:11;13.52;;;8.10;;
20277;SDS011;10298;49.716;17.806;2022-07-01T14:31:38;12.88;;;8.10;;
20277;SDS011;10298;49.716;17.806;2022-07-01T14:34:05;14.57;;;7.90;;
20277;SDS011;10298;49.716;17.806;2022-07-01T14:36:32;16.95;;;8.45;;
20277;SDS011;10298;49.716;17.806;2022-07-01T14:38:58;14.13;;;7.47;;
20277;SDS011;10298;49.716;17.806;2022-07-01T14:41:25;10.88;;;8.18;;
20277;SDS011;10298;49.716;17.806;2022-07-01T14:43:53;12.88;;;7.70;;
20277;SDS011;10298;49.716;17.806;2022-07-01T14:46:19;15.25;;;7.97;;